TNCB/BON METAR and TAF weather

Enter ICAO airport designator
Station Type Date Time Source
TNCB METAR 2019/06/17 12:55 UTC NOAA

TNCB 171255Z 09020KT 070V130 9999 FEW017 30/24 Q1015


Station Type Date Time Source
TNCB Decoded METAR 2019/06/17 12:55 UTC NOAA

Flamingo Airport, Bonaire, Netherlands Antilles (TNCB) 12-09N 068-17W 7M
Jun 17, 2019 - 08:55 AM EDT / 2019.06.17 1255 UTC
Wind: from the E (090 degrees) at 23 MPH (20 KT) (direction variable):0
Visibility: greater than 7 mile(s):0
Sky conditions: mostly clear
Temperature: 86 F (30 C)
Heat index: 95.0 F (35.0 C):1
Dew Point: 75 F (24 C)
Relative Humidity: 70%
Pressure (altimeter): 29.97 in. Hg (1015 hPa)
ob: TNCB 171255Z 09020KT 070V130 9999 FEW017 30/24 Q1015
cycle: 13

Station Type Date Time Source
TNCB TAF 2019/06/17 12:27 UTC NOAA

TAF TAF COR TNCB 171106Z 1712/1818 09018KT 9999 SCT018 PROB30
TEMPO 1722/1803 6000 -SHRA FEW015CB
TEMPO 1803/1818 4000 SHRA SCT015CB

Example: see airport list